sensor_id;sensor_type;location;lat;lon;timestamp;temperature;humidity
46926;DHT22;32667;48.248;-1.700;2023-05-09T00:00:05;16.30;69.90
46926;DHT22;32667;48.248;-1.700;2023-05-09T00:02:34;16.30;70.00
46926;DHT22;32667;48.248;-1.700;2023-05-09T00:05:03;16.30;69.90
46926;DHT22;32667;48.248;-1.700;2023-05-09T00:07:29;16.30;69.90
46926;DHT22;32667;48.248;-1.700;2023-05-09T00:09:56;16.30;69.90
46926;DHT22;32667;48.248;-1.700;2023-05-09T00:12:22;16.30;69.90
46926;DHT22;32667;48.248;-1.700;2023-05-09T00:14:49;16.30;69.90
46926;DHT22;32667;48.248;-1.700;2023-05-09T00:17:17;16.30;70.00
46926;DHT22;32667;48.248;-1.700;2023-05-09T00:19:45;16.30;69.90
46926;DHT22;32667;48.248;-1.700;2023-05-09T00:22:12;16.30;69.90
46926;DHT22;32667;48.248;-1.700;2023-05-09T00:24:38;16.30;69.90
46926;DHT22;32667;48.248;-1.700;2023-05-09T00:27:03;16.30;69.80
46926;DHT22;32667;48.248;-1.700;2023-05-09T00:29:32;16.30;69.90
46926;DHT22;32667;48.248;-1.700;2023-05-09T00:31:58;16.30;69.90
46926;DHT22;32667;48.248;-1.700;2023-05-09T00:34:34;16.30;69.90
46926;DHT22;32667;48.248;-1.700;2023-05-09T00:37:02;16.30;69.90
46926;DHT22;32667;48.248;-1.700;2023-05-09T00:39:28;16.30;70.00
46926;DHT22;32667;48.248;-1.700;2023-05-09T00:41:55;16.30;70.00
46926;DHT22;32667;48.248;-1.700;2023-05-09T00:44:23;16.30;70.10
46926;DHT22;32667;48.248;-1.700;2023-05-09T00:46:51;16.30;70.00
46926;DHT22;32667;48.248;-1.700;2023-05-09T00:49:17;16.30;70.00
46926;DHT22;32667;48.248;-1.700;2023-05-09T00:51:42;16.30;70.00
46926;DHT22;32667;48.248;-1.700;2023-05-09T00:54:09;16.30;69.90
46926;DHT22;32667;48.248;-1.700;2023-05-09T00:56:38;16.30;69.90
46926;DHT22;32667;48.248;-1.700;2023-05-09T00:59:07;16.30;69.90
46926;DHT22;32667;48.248;-1.700;2023-05-09T01:01:32;16.40;69.90
46926;DHT22;32667;48.248;-1.700;2023-05-09T01:03:58;16.40;69.80
46926;DHT22;32667;48.248;-1.700;2023-05-09T01:09:23;16.40;69.90
46926;DHT22;32667;48.248;-1.700;2023-05-09T01:12:12;16.40;69.90
46926;DHT22;32667;48.248;-1.700;2023-05-09T01:15:23;16.40;69.90
46926;DHT22;32667;48.248;-1.700;2023-05-09T01:18:08;16.40;69.90
46926;DHT22;32667;48.248;-1.700;2023-05-09T01:20:38;16.40;69.90
46926;DHT22;32667;48.248;-1.700;2023-05-09T01:31:16;16.30;70.00
46926;DHT22;32667;48.248;-1.700;2023-05-09T01:33:49;16.30;70.00
46926;DHT22;32667;48.248;-1.700;2023-05-09T01:36:20;16.30;70.00
46926;DHT22;32667;48.248;-1.700;2023-05-09T01:38:49;16.30;70.00
46926;DHT22;32667;48.248;-1.700;2023-05-09T01:41:21;16.30;70.00
46926;DHT22;32667;48.248;-1.700;2023-05-09T01:43:49;16.30;70.60
46926;DHT22;32667;48.248;-1.700;2023-05-09T01:46:23;16.30;70.10
46926;DHT22;32667;48.248;-1.700;2023-05-09T01:48:58;16.40;70.10
46926;DHT22;32667;48.248;-1.700;2023-05-09T01:51:30;16.40;70.00
46926;DHT22;32667;48.248;-1.700;2023-05-09T01:54:00;16.40;69.90
46926;DHT22;32667;48.248;-1.700;2023-05-09T01:56:29;16.40;70.00
46926;DHT22;32667;48.248;-1.700;2023-05-09T01:59:00;16.40;70.10
46926;DHT22;32667;48.248;-1.700;2023-05-09T02:01:29;16.30;70.10
46926;DHT22;32667;48.248;-1.700;2023-05-09T02:04:04;16.30;70.10
46926;DHT22;32667;48.248;-1.700;2023-05-09T02:06:30;16.30;70.20
46926;DHT22;32667;48.248;-1.700;2023-05-09T02:08:57;16.30;70.20
46926;DHT22;32667;48.248;-1.700;2023-05-09T02:11:28;16.30;70.20
46926;DHT22;32667;48.248;-1.700;2023-05-09T02:14:04;16.30;70.20
46926;DHT22;32667;48.248;-1.700;2023-05-09T02:16:31;16.30;70.20
46926;DHT22;32667;48.248;-1.700;2023-05-09T02:18:56;16.30;70.30
46926;DHT22;32667;48.248;-1.700;2023-05-09T02:21:23;16.30;70.30
46926;DHT22;32667;48.248;-1.700;2023-05-09T02:23:52;16.30;70.30
46926;DHT22;32667;48.248;-1.700;2023-05-09T02:26:18;16.30;70.30
46926;DHT22;32667;48.248;-1.700;2023-05-09T02:28:44;16.30;70.20
46926;DHT22;32667;48.248;-1.700;2023-05-09T02:31:13;16.30;70.10
46926;DHT22;32667;48.248;-1.700;2023-05-09T02:33:40;16.30;70.10
46926;DHT22;32667;48.248;-1.700;2023-05-09T02:36:10;16.30;70.20
46926;DHT22;32667;48.248;-1.700;2023-05-09T02:38:36;16.20;70.20
46926;DHT22;32667;48.248;-1.700;2023-05-09T02:41:04;16.20;70.30
46926;DHT22;32667;48.248;-1.700;2023-05-09T02:43:40;16.20;70.40
46926;DHT22;32667;48.248;-1.700;2023-05-09T02:46:07;16.20;70.40
46926;DHT22;32667;48.248;-1.700;2023-05-09T02:48:33;16.20;70.40
46926;DHT22;32667;48.248;-1.700;2023-05-09T02:50:59;16.20;70.40
46926;DHT22;32667;48.248;-1.700;2023-05-09T02:53:29;16.10;70.40
46926;DHT22;32667;48.248;-1.700;2023-05-09T02:55:55;16.20;70.50
46926;DHT22;32667;48.248;-1.700;2023-05-09T02:58:23;16.10;70.50
46926;DHT22;32667;48.248;-1.700;2023-05-09T03:00:49;16.10;70.60
46926;DHT22;32667;48.248;-1.700;2023-05-09T03:03:15;16.10;70.50
46926;DHT22;32667;48.248;-1.700;2023-05-09T03:05:44;16.10;70.50
46926;DHT22;32667;48.248;-1.700;2023-05-09T03:08:10;16.20;70.50
46926;DHT22;32667;48.248;-1.700;2023-05-09T03:10:35;16.20;70.40
46926;DHT22;32667;48.248;-1.700;2023-05-09T03:13:03;16.20;70.40
46926;DHT22;32667;48.248;-1.700;2023-05-09T03:15:29;16.20;71.00
46926;DHT22;32667;48.248;-1.700;2023-05-09T03:17:55;16.20;70.40
46926;DHT22;32667;48.248;-1.700;2023-05-09T03:20:25;16.20;70.40
46926;DHT22;32667;48.248;-1.700;2023-05-09T03:22:52;16.20;70.40
46926;DHT22;32667;48.248;-1.700;2023-05-09T03:25:17;16.20;70.40
46926;DHT22;32667;48.248;-1.700;2023-05-09T03:27:43;16.20;70.50
46926;DHT22;32667;48.248;-1.700;2023-05-09T03:30:09;16.20;70.50
46926;DHT22;32667;48.248;-1.700;2023-05-09T03:32:37;16.20;70.50
46926;DHT22;32667;48.248;-1.700;2023-05-09T03:35:07;16.20;70.40
46926;DHT22;32667;48.248;-1.700;2023-05-09T03:37:35;16.30;70.40
46926;DHT22;32667;48.248;-1.700;2023-05-09T03:40:01;16.30;70.30
46926;DHT22;32667;48.248;-1.700;2023-05-09T03:42:31;16.30;70.30
46926;DHT22;32667;48.248;-1.700;2023-05-09T03:44:57;16.20;71.00
46926;DHT22;32667;48.248;-1.700;2023-05-09T03:47:23;16.20;70.50
46926;DHT22;32667;48.248;-1.700;2023-05-09T03:49:48;16.10;70.40
46926;DHT22;32667;48.248;-1.700;2023-05-09T03:52:19;16.20;70.50
46926;DHT22;32667;48.248;-1.700;2023-05-09T03:54:47;16.10;70.50
46926;DHT22;32667;48.248;-1.700;2023-05-09T03:57:17;16.10;70.50
46926;DHT22;32667;48.248;-1.700;2023-05-09T03:59:48;16.10;70.50
46926;DHT22;32667;48.248;-1.700;2023-05-09T04:02:16;16.10;70.90
46926;DHT22;32667;48.248;-1.700;2023-05-09T04:04:44;16.10;70.60
46926;DHT22;32667;48.248;-1.700;2023-05-09T04:07:16;16.00;70.60
46926;DHT22;32667;48.248;-1.700;2023-05-09T04:09:47;16.00;70.70
46926;DHT22;32667;48.248;-1.700;2023-05-09T04:12:14;16.00;70.70
46926;DHT22;32667;48.248;-1.700;2023-05-09T04:14:41;16.00;70.70
46926;DHT22;32667;48.248;-1.700;2023-05-09T04:17:09;15.90;70.60
46926;DHT22;32667;48.248;-1.700;2023-05-09T04:19:35;15.90;70.70
46926;DHT22;32667;48.248;-1.700;2023-05-09T04:22:01;15.90;70.70
46926;DHT22;32667;48.248;-1.700;2023-05-09T04:24:26;15.90;71.40
46926;DHT22;32667;48.248;-1.700;2023-05-09T04:27:00;15.90;70.80
46926;DHT22;32667;48.248;-1.700;2023-05-09T04:29:26;15.80;70.80
46926;DHT22;32667;48.248;-1.700;2023-05-09T04:31:55;15.80;70.80
46926;DHT22;32667;48.248;-1.700;2023-05-09T04:34:22;15.80;70.80
46926;DHT22;32667;48.248;-1.700;2023-05-09T04:36:50;15.80;70.80
46926;DHT22;32667;48.248;-1.700;2023-05-09T04:39:16;15.80;70.80
46926;DHT22;32667;48.248;-1.700;2023-05-09T04:41:42;15.80;70.80
46926;DHT22;32667;48.248;-1.700;2023-05-09T04:44:12;15.80;70.80
46926;DHT22;32667;48.248;-1.700;2023-05-09T04:46:41;15.80;70.80
46926;DHT22;32667;48.248;-1.700;2023-05-09T04:49:23;15.70;70.80
46926;DHT22;32667;48.248;-1.700;2023-05-09T04:51:51;15.70;70.90
46926;DHT22;32667;48.248;-1.700;2023-05-09T04:54:16;15.70;70.80
46926;DHT22;32667;48.248;-1.700;2023-05-09T04:56:53;15.70;70.90
46926;DHT22;32667;48.248;-1.700;2023-05-09T04:59:18;15.60;70.90
46926;DHT22;32667;48.248;-1.700;2023-05-09T05:02:07;15.60;71.00
46926;DHT22;32667;48.248;-1.700;2023-05-09T05:04:35;15.50;71.00
46926;DHT22;32667;48.248;-1.700;2023-05-09T05:07:01;15.50;71.10
46926;DHT22;32667;48.248;-1.700;2023-05-09T05:09:29;15.50;71.10
46926;DHT22;32667;48.248;-1.700;2023-05-09T05:11:54;15.50;71.10
46926;DHT22;32667;48.248;-1.700;2023-05-09T05:14:30;15.50;71.10
46926;DHT22;32667;48.248;-1.700;2023-05-09T05:16:57;15.50;71.00
46926;DHT22;32667;48.248;-1.700;2023-05-09T05:19:23;15.60;71.00
46926;DHT22;32667;48.248;-1.700;2023-05-09T05:21:51;15.60;71.00
46926;DHT22;32667;48.248;-1.700;2023-05-09T05:24:17;15.60;70.90
46926;DHT22;32667;48.248;-1.700;2023-05-09T05:26:43;15.60;71.00
46926;DHT22;32667;48.248;-1.700;2023-05-09T05:29:11;15.60;70.90
46926;DHT22;32667;48.248;-1.700;2023-05-09T05:31:36;15.60;71.00
46926;DHT22;32667;48.248;-1.700;2023-05-09T05:34:04;15.60;71.00
46926;DHT22;32667;48.248;-1.700;2023-05-09T05:36:30;15.50;71.00
46926;DHT22;32667;48.248;-1.700;2023-05-09T05:38:56;15.50;71.00
46926;DHT22;32667;48.248;-1.700;2023-05-09T05:41:31;15.50;71.00
46926;DHT22;32667;48.248;-1.700;2023-05-09T05:43:57;15.50;71.70
46926;DHT22;32667;48.248;-1.700;2023-05-09T05:46:25;15.50;71.10
46926;DHT22;32667;48.248;-1.700;2023-05-09T05:48:53;15.50;71.00
46926;DHT22;32667;48.248;-1.700;2023-05-09T05:51:24;15.50;71.10
46926;DHT22;32667;48.248;-1.700;2023-05-09T05:53:50;15.50;71.00
46926;DHT22;32667;48.248;-1.700;2023-05-09T05:56:23;15.50;71.00
46926;DHT22;32667;48.248;-1.700;2023-05-09T05:58:51;15.50;71.00
46926;DHT22;32667;48.248;-1.700;2023-05-09T06:01:26;15.50;71.00
46926;DHT22;32667;48.248;-1.700;2023-05-09T06:03:54;15.50;71.10
46926;DHT22;32667;48.248;-1.700;2023-05-09T06:06:23;15.50;71.00
46926;DHT22;32667;48.248;-1.700;2023-05-09T06:08:50;15.50;71.00
46926;DHT22;32667;48.248;-1.700;2023-05-09T06:11:16;15.50;71.00
46926;DHT22;32667;48.248;-1.700;2023-05-09T06:13:42;15.50;71.00
46926;DHT22;32667;48.248;-1.700;2023-05-09T06:16:11;15.40;71.00
46926;DHT22;32667;48.248;-1.700;2023-05-09T06:18:37;15.40;71.00
46926;DHT22;32667;48.248;-1.700;2023-05-09T06:21:07;15.40;71.10
46926;DHT22;32667;48.248;-1.700;2023-05-09T06:23:36;15.40;71.10
46926;DHT22;32667;48.248;-1.700;2023-05-09T06:26:04;15.40;71.10
46926;DHT22;32667;48.248;-1.700;2023-05-09T06:28:32;15.40;71.10
46926;DHT22;32667;48.248;-1.700;2023-05-09T06:30:58;15.40;71.10
46926;DHT22;32667;48.248;-1.700;2023-05-09T06:33:25;15.40;71.10
46926;DHT22;32667;48.248;-1.700;2023-05-09T06:35:50;15.40;71.10
46926;DHT22;32667;48.248;-1.700;2023-05-09T06:38:18;15.40;70.90
46926;DHT22;32667;48.248;-1.700;2023-05-09T06:40:53;15.50;71.00
46926;DHT22;32667;48.248;-1.700;2023-05-09T06:43:24;15.50;71.00
46926;DHT22;32667;48.248;-1.700;2023-05-09T06:45:55;15.40;71.00
46926;DHT22;32667;48.248;-1.700;2023-05-09T06:48:24;15.50;71.00
46926;DHT22;32667;48.248;-1.700;2023-05-09T06:50:50;15.50;71.00
46926;DHT22;32667;48.248;-1.700;2023-05-09T06:53:15;15.50;71.00
46926;DHT22;32667;48.248;-1.700;2023-05-09T06:55:43;15.50;71.00
46926;DHT22;32667;48.248;-1.700;2023-05-09T06:58:14;15.50;71.00
46926;DHT22;32667;48.248;-1.700;2023-05-09T07:00:42;15.40;70.90
46926;DHT22;32667;48.248;-1.700;2023-05-09T07:03:08;15.50;71.00
46926;DHT22;32667;48.248;-1.700;2023-05-09T07:05:37;15.50;71.00
46926;DHT22;32667;48.248;-1.700;2023-05-09T07:08:03;15.50;70.80
46926;DHT22;32667;48.248;-1.700;2023-05-09T07:10:29;15.60;70.80
46926;DHT22;32667;48.248;-1.700;2023-05-09T07:13:02;15.60;70.80
46926;DHT22;32667;48.248;-1.700;2023-05-09T07:15:33;15.60;70.70
46926;DHT22;32667;48.248;-1.700;2023-05-09T07:18:01;15.60;70.70
46926;DHT22;32667;48.248;-1.700;2023-05-09T07:20:27;15.60;70.70
46926;DHT22;32667;48.248;-1.700;2023-05-09T07:22:52;15.70;70.70
46926;DHT22;32667;48.248;-1.700;2023-05-09T07:25:20;15.70;70.70
46926;DHT22;32667;48.248;-1.700;2023-05-09T07:27:56;15.70;70.60
46926;DHT22;32667;48.248;-1.700;2023-05-09T07:30:22;15.70;70.60
46926;DHT22;32667;48.248;-1.700;2023-05-09T07:32:57;15.70;70.60
46926;DHT22;32667;48.248;-1.700;2023-05-09T07:35:28;15.70;70.60
46926;DHT22;32667;48.248;-1.700;2023-05-09T07:37:53;15.70;70.70
46926;DHT22;32667;48.248;-1.700;2023-05-09T07:40:19;15.70;70.70
46926;DHT22;32667;48.248;-1.700;2023-05-09T07:42:45;15.70;70.70
46926;DHT22;32667;48.248;-1.700;2023-05-09T07:45:14;15.70;70.70
46926;DHT22;32667;48.248;-1.700;2023-05-09T07:47:43;15.70;70.60
46926;DHT22;32667;48.248;-1.700;2023-05-09T07:50:08;15.70;70.60
46926;DHT22;32667;48.248;-1.700;2023-05-09T07:52:37;15.80;70.60
46926;DHT22;32667;48.248;-1.700;2023-05-09T07:55:08;15.90;70.60
46926;DHT22;32667;48.248;-1.700;2023-05-09T07:57:36;15.90;70.50
46926;DHT22;32667;48.248;-1.700;2023-05-09T08:00:06;15.90;70.40
46926;DHT22;32667;48.248;-1.700;2023-05-09T08:02:32;16.00;70.30
46926;DHT22;32667;48.248;-1.700;2023-05-09T08:04:58;16.00;70.40
46926;DHT22;32667;48.248;-1.700;2023-05-09T08:07:23;16.00;70.40
46926;DHT22;32667;48.248;-1.700;2023-05-09T08:09:57;16.00;70.40
46926;DHT22;32667;48.248;-1.700;2023-05-09T08:12:28;16.00;70.40
46926;DHT22;32667;48.248;-1.700;2023-05-09T08:14:53;16.10;70.40
46926;DHT22;32667;48.248;-1.700;2023-05-09T08:17:26;16.10;70.30
46926;DHT22;32667;48.248;-1.700;2023-05-09T08:19:57;16.10;70.20
46926;DHT22;32667;48.248;-1.700;2023-05-09T08:22:25;16.20;70.80
46926;DHT22;32667;48.248;-1.700;2023-05-09T08:24:51;16.30;70.10
46926;DHT22;32667;48.248;-1.700;2023-05-09T08:27:20;16.40;70.10
46926;DHT22;32667;48.248;-1.700;2023-05-09T08:29:48;16.40;69.80
46926;DHT22;32667;48.248;-1.700;2023-05-09T08:32:21;16.50;69.80
46926;DHT22;32667;48.248;-1.700;2023-05-09T08:34:51;16.50;69.70
46926;DHT22;32667;48.248;-1.700;2023-05-09T08:37:17;16.60;69.70
46926;DHT22;32667;48.248;-1.700;2023-05-09T08:39:53;16.70;69.60
46926;DHT22;32667;48.248;-1.700;2023-05-09T08:42:23;16.70;69.60
46926;DHT22;32667;48.248;-1.700;2023-05-09T08:44:52;16.70;69.60
46926;DHT22;32667;48.248;-1.700;2023-05-09T08:47:19;16.80;69.50
46926;DHT22;32667;48.248;-1.700;2023-05-09T08:49:49;16.80;69.50
46926;DHT22;32667;48.248;-1.700;2023-05-09T08:52:19;16.80;69.60
46926;DHT22;32667;48.248;-1.700;2023-05-09T08:54:55;16.90;69.60
46926;DHT22;32667;48.248;-1.700;2023-05-09T08:57:25;16.90;69.60
46926;DHT22;32667;48.248;-1.700;2023-05-09T08:59:52;16.90;69.60
46926;DHT22;32667;48.248;-1.700;2023-05-09T09:02:18;17.00;69.60
46926;DHT22;32667;48.248;-1.700;2023-05-09T09:04:46;16.90;69.50
46926;DHT22;32667;48.248;-1.700;2023-05-09T09:07:16;17.00;69.70
46926;DHT22;32667;48.248;-1.700;2023-05-09T09:10:02;17.00;69.60
46926;DHT22;32667;48.248;-1.700;2023-05-09T09:12:32;17.00;70.20
46926;DHT22;32667;48.248;-1.700;2023-05-09T09:15:03;17.00;69.60
46926;DHT22;32667;48.248;-1.700;2023-05-09T09:17:30;17.10;69.70
46926;DHT22;32667;48.248;-1.700;2023-05-09T09:20:09;17.10;69.60
46926;DHT22;32667;48.248;-1.700;2023-05-09T09:22:37;17.20;69.50
46926;DHT22;32667;48.248;-1.700;2023-05-09T09:25:06;17.20;69.40
46926;DHT22;32667;48.248;-1.700;2023-05-09T09:27:31;17.30;69.30
46926;DHT22;32667;48.248;-1.700;2023-05-09T09:30:10;17.40;69.80
46926;DHT22;32667;48.248;-1.700;2023-05-09T09:32:36;17.50;69.10
46926;DHT22;32667;48.248;-1.700;2023-05-09T09:35:11;17.50;69.10
46926;DHT22;32667;48.248;-1.700;2023-05-09T09:37:38;17.40;69.20
46926;DHT22;32667;48.248;-1.700;2023-05-09T09:40:06;17.40;69.30
46926;DHT22;32667;48.248;-1.700;2023-05-09T09:43:05;17.40;69.90
46926;DHT22;32667;48.248;-1.700;2023-05-09T09:45:33;17.50;69.30
46926;DHT22;32667;48.248;-1.700;2023-05-09T09:48:05;17.60;69.10
46926;DHT22;32667;48.248;-1.700;2023-05-09T09:50:31;17.80;69.00
46926;DHT22;32667;48.248;-1.700;2023-05-09T09:52:57;17.90;68.80
46926;DHT22;32667;48.248;-1.700;2023-05-09T09:55:25;18.00;68.60
46926;DHT22;32667;48.248;-1.700;2023-05-09T09:57:58;18.10;68.50
46926;DHT22;32667;48.248;-1.700;2023-05-09T10:00:28;18.20;68.50
46926;DHT22;32667;48.248;-1.700;2023-05-09T10:03:01;18.20;68.40
46926;DHT22;32667;48.248;-1.700;2023-05-09T10:05:29;18.20;68.40
46926;DHT22;32667;48.248;-1.700;2023-05-09T10:07:57;18.20;68.50
46926;DHT22;32667;48.248;-1.700;2023-05-09T10:10:30;18.30;68.60
46926;DHT22;32667;48.248;-1.700;2023-05-09T10:12:58;18.30;68.60
46926;DHT22;32667;48.248;-1.700;2023-05-09T10:15:25;18.40;68.50
46926;DHT22;32667;48.248;-1.700;2023-05-09T10:17:56;18.40;68.40
46926;DHT22;32667;48.248;-1.700;2023-05-09T10:20:27;18.50;68.40
46926;DHT22;32667;48.248;-1.700;2023-05-09T10:22:58;18.50;68.40
46926;DHT22;32667;48.248;-1.700;2023-05-09T10:25:43;18.60;68.40
46926;DHT22;32667;48.248;-1.700;2023-05-09T10:28:14;18.50;68.40
46926;DHT22;32667;48.248;-1.700;2023-05-09T10:31:15;18.50;68.50
46926;DHT22;32667;48.248;-1.700;2023-05-09T10:33:48;18.50;68.60
46926;DHT22;32667;48.248;-1.700;2023-05-09T10:36:21;18.50;68.60
46926;DHT22;32667;48.248;-1.700;2023-05-09T10:38:48;18.60;68.70
46926;DHT22;32667;48.248;-1.700;2023-05-09T10:41:18;18.50;68.60
46926;DHT22;32667;48.248;-1.700;2023-05-09T10:43:44;18.60;68.70
46926;DHT22;32667;48.248;-1.700;2023-05-09T10:46:11;18.50;68.70
46926;DHT22;32667;48.248;-1.700;2023-05-09T10:48:40;18.60;68.80
46926;DHT22;32667;48.248;-1.700;2023-05-09T10:51:09;18.60;68.80
46926;DHT22;32667;48.248;-1.700;2023-05-09T10:56:31;18.70;68.80
46926;DHT22;32667;48.248;-1.700;2023-05-09T10:59:05;18.80;68.60
46926;DHT22;32667;48.248;-1.700;2023-05-09T11:01:36;18.90;68.40
46926;DHT22;32667;48.248;-1.700;2023-05-09T11:04:13;19.00;68.40
46926;DHT22;32667;48.248;-1.700;2023-05-09T11:09:43;19.10;68.00
46926;DHT22;32667;48.248;-1.700;2023-05-09T11:12:13;19.20;68.00
46926;DHT22;32667;48.248;-1.700;2023-05-09T11:14:43;19.30;68.00
46926;DHT22;32667;48.248;-1.700;2023-05-09T11:17:14;19.40;68.40
46926;DHT22;32667;48.248;-1.700;2023-05-09T11:22:38;19.70;67.50
46926;DHT22;32667;48.248;-1.700;2023-05-09T11:25:11;19.80;67.40
46926;DHT22;32667;48.248;-1.700;2023-05-09T11:27:43;19.60;67.40
46926;DHT22;32667;48.248;-1.700;2023-05-09T11:30:14;19.60;67.60
46926;DHT22;32667;48.248;-1.700;2023-05-09T11:35:16;19.70;67.60
46926;DHT22;32667;48.248;-1.700;2023-05-09T11:37:49;19.70;67.60
46926;DHT22;32667;48.248;-1.700;2023-05-09T11:40:20;19.70;67.80
46926;DHT22;32667;48.248;-1.700;2023-05-09T11:42:48;19.50;67.90
46926;DHT22;32667;48.248;-1.700;2023-05-09T11:45:17;19.40;68.20
46926;DHT22;32667;48.248;-1.700;2023-05-09T11:48:07;19.30;68.50
46926;DHT22;32667;48.248;-1.700;2023-05-09T11:50:33;19.20;68.50
46926;DHT22;32667;48.248;-1.700;2023-05-09T11:52:59;19.20;68.70
46926;DHT22;32667;48.248;-1.700;2023-05-09T11:55:24;19.20;68.60
46926;DHT22;32667;48.248;-1.700;2023-05-09T11:57:57;19.20;68.60
46926;DHT22;32667;48.248;-1.700;2023-05-09T12:00:24;19.30;68.50
46926;DHT22;32667;48.248;-1.700;2023-05-09T12:02:51;19.30;68.50
46926;DHT22;32667;48.248;-1.700;2023-05-09T12:05:27;19.30;68.40
46926;DHT22;32667;48.248;-1.700;2023-05-09T12:08:02;19.30;68.40
46926;DHT22;32667;48.248;-1.700;2023-05-09T12:10:29;19.20;68.60
46926;DHT22;32667;48.248;-1.700;2023-05-09T12:12:57;19.20;68.70
46926;DHT22;32667;48.248;-1.700;2023-05-09T12:15:27;19.00;68.80
46926;DHT22;32667;48.248;-1.700;2023-05-09T12:18:03;19.00;68.90
46926;DHT22;32667;48.248;-1.700;2023-05-09T12:20:42;19.00;69.00
46926;DHT22;32667;48.248;-1.700;2023-05-09T12:23:12;18.90;69.10
46926;DHT22;32667;48.248;-1.700;2023-05-09T12:25:45;18.90;69.20
46926;DHT22;32667;48.248;-1.700;2023-05-09T12:28:17;18.90;69.20
46926;DHT22;32667;48.248;-1.700;2023-05-09T12:30:44;18.90;69.00
46926;DHT22;32667;48.248;-1.700;2023-05-09T12:33:13;19.00;69.00
46926;DHT22;32667;48.248;-1.700;2023-05-09T12:35:46;19.00;68.90
46926;DHT22;32667;48.248;-1.700;2023-05-09T12:38:20;19.10;68.80
46926;DHT22;32667;48.248;-1.700;2023-05-09T12:40:47;19.30;68.60
46926;DHT22;32667;48.248;-1.700;2023-05-09T12:43:13;19.40;68.30
46926;DHT22;32667;48.248;-1.700;2023-05-09T12:45:39;19.40;68.30
46926;DHT22;32667;48.248;-1.700;2023-05-09T12:48:07;19.40;68.30
46926;DHT22;32667;48.248;-1.700;2023-05-09T12:50:36;19.30;68.30
46926;DHT22;32667;48.248;-1.700;2023-05-09T12:53:02;19.30;68.40
46926;DHT22;32667;48.248;-1.700;2023-05-09T12:55:38;19.40;68.40
46926;DHT22;32667;48.248;-1.700;2023-05-09T12:58:13;19.40;68.40
46926;DHT22;32667;48.248;-1.700;2023-05-09T13:00:44;19.40;68.40
46926;DHT22;32667;48.248;-1.700;2023-05-09T13:03:40;19.50;68.20
46926;DHT22;32667;48.248;-1.700;2023-05-09T13:06:13;19.60;68.10
46926;DHT22;32667;48.248;-1.700;2023-05-09T13:08:39;19.80;67.70
46926;DHT22;32667;48.248;-1.700;2023-05-09T13:11:08;19.80;67.60
46926;DHT22;32667;48.248;-1.700;2023-05-09T13:13:34;19.60;67.80
46926;DHT22;32667;48.248;-1.700;2023-05-09T13:16:02;19.40;68.10
46926;DHT22;32667;48.248;-1.700;2023-05-09T13:18:28;19.30;68.60
46926;DHT22;32667;48.248;-1.700;2023-05-09T13:20:54;19.10;68.80
46926;DHT22;32667;48.248;-1.700;2023-05-09T13:23:20;18.90;69.20
46926;DHT22;32667;48.248;-1.700;2023-05-09T13:25:48;18.80;69.40
46926;DHT22;32667;48.248;-1.700;2023-05-09T13:28:14;18.70;69.60
46926;DHT22;32667;48.248;-1.700;2023-05-09T13:30:39;18.60;69.70
46926;DHT22;32667;48.248;-1.700;2023-05-09T13:33:05;18.50;69.90
46926;DHT22;32667;48.248;-1.700;2023-05-09T13:35:31;18.50;69.90
46926;DHT22;32667;48.248;-1.700;2023-05-09T13:37:59;18.50;69.90
46926;DHT22;32667;48.248;-1.700;2023-05-09T13:40:27;18.60;69.80
46926;DHT22;32667;48.248;-1.700;2023-05-09T13:42:55;18.60;69.60
46926;DHT22;32667;48.248;-1.700;2023-05-09T13:45:23;18.70;70.00
46926;DHT22;32667;48.248;-1.700;2023-05-09T13:47:49;18.70;69.30
46926;DHT22;32667;48.248;-1.700;2023-05-09T13:50:25;18.70;69.30
46926;DHT22;32667;48.248;-1.700;2023-05-09T13:52:53;18.70;69.30
46926;DHT22;32667;48.248;-1.700;2023-05-09T13:55:24;18.70;69.30
46926;DHT22;32667;48.248;-1.700;2023-05-09T13:57:51;18.70;69.30
46926;DHT22;32667;48.248;-1.700;2023-05-09T14:00:20;18.70;69.30
46926;DHT22;32667;48.248;-1.700;2023-05-09T14:02:46;18.80;69.20
46926;DHT22;32667;48.248;-1.700;2023-05-09T14:05:14;19.00;69.00
46926;DHT22;32667;48.248;-1.700;2023-05-09T14:07:41;19.20;68.80
46926;DHT22;32667;48.248;-1.700;2023-05-09T14:10:07;19.40;68.40
46926;DHT22;32667;48.248;-1.700;2023-05-09T14:12:33;19.60;68.10
46926;DHT22;32667;48.248;-1.700;2023-05-09T14:15:01;19.90;67.70
46926;DHT22;32667;48.248;-1.700;2023-05-09T14:17:31;20.00;67.30
46926;DHT22;32667;48.248;-1.700;2023-05-09T14:19:59;20.20;67.20
46926;DHT22;32667;48.248;-1.700;2023-05-09T14:22:25;20.40;66.90
46926;DHT22;32667;48.248;-1.700;2023-05-09T14:24:51;20.60;66.80
46926;DHT22;32667;48.248;-1.700;2023-05-09T14:27:21;20.70;66.70
46926;DHT22;32667;48.248;-1.700;2023-05-09T14:29:55;20.80;66.60
46926;DHT22;32667;48.248;-1.700;2023-05-09T14:32:23;20.80;66.50
46926;DHT22;32667;48.248;-1.700;2023-05-09T14:34:52;20.90;66.60
46926;DHT22;32667;48.248;-1.700;2023-05-09T14:37:20;21.00;66.60
46926;DHT22;32667;48.248;-1.700;2023-05-09T14:39:48;21.00;66.50
46926;DHT22;32667;48.248;-1.700;2023-05-09T14:42:14;21.00;66.70
46926;DHT22;32667;48.248;-1.700;2023-05-09T14:44:41;21.00;66.80
46926;DHT22;32667;48.248;-1.700;2023-05-09T14:47:07;21.00;66.90
46926;DHT22;32667;48.248;-1.700;2023-05-09T14:49:33;21.10;66.90
46926;DHT22;32667;48.248;-1.700;2023-05-09T14:51:59;21.10;66.70
46926;DHT22;32667;48.248;-1.700;2023-05-09T14:54:27;21.10;66.80
46926;DHT22;32667;48.248;-1.700;2023-05-09T14:56:55;21.20;66.90
46926;DHT22;32667;48.248;-1.700;2023-05-09T14:59:50;21.40;66.80
46926;DHT22;32667;48.248;-1.700;2023-05-09T15:02:15;21.40;66.60
46926;DHT22;32667;48.248;-1.700;2023-05-09T15:04:41;21.40;66.60
46926;DHT22;32667;48.248;-1.700;2023-05-09T15:07:08;21.50;67.20
46926;DHT22;32667;48.248;-1.700;2023-05-09T15:09:36;21.50;66.60
46926;DHT22;32667;48.248;-1.700;2023-05-09T15:12:02;21.50;66.60
46926;DHT22;32667;48.248;-1.700;2023-05-09T15:14:28;21.50;66.70
46926;DHT22;32667;48.248;-1.700;2023-05-09T15:16:56;21.40;66.90
46926;DHT22;32667;48.248;-1.700;2023-05-09T15:19:28;21.50;66.80
46926;DHT22;32667;48.248;-1.700;2023-05-09T15:21:57;21.50;66.80
46926;DHT22;32667;48.248;-1.700;2023-05-09T15:24:23;21.40;66.90
46926;DHT22;32667;48.248;-1.700;2023-05-09T15:26:52;21.40;67.10
46926;DHT22;32667;48.248;-1.700;2023-05-09T15:29:33;21.40;67.00
46926;DHT22;32667;48.248;-1.700;2023-05-09T15:32:01;21.40;67.00
46926;DHT22;32667;48.248;-1.700;2023-05-09T15:34:29;21.50;67.00
46926;DHT22;32667;48.248;-1.700;2023-05-09T15:37:03;21.30;67.00
46926;DHT22;32667;48.248;-1.700;2023-05-09T15:39:33;21.10;67.30
46926;DHT22;32667;48.248;-1.700;2023-05-09T15:42:00;20.90;67.70
46926;DHT22;32667;48.248;-1.700;2023-05-09T15:44:33;20.80;68.20
46926;DHT22;32667;48.248;-1.700;2023-05-09T15:47:01;20.70;68.20
46926;DHT22;32667;48.248;-1.700;2023-05-09T15:49:27;20.70;68.20